sensor_id;sensor_type;location;lat;lon;timestamp;P1;durP1;ratioP1;P2;durP2;ratioP2
35648;SDS011;21768;48.562;13.414;2022-08-19T00:01:24;8.32;;;4.93;;
35648;SDS011;21768;48.562;13.414;2022-08-19T00:03:52;9.75;;;4.97;;
35648;SDS011;21768;48.562;13.414;2022-08-19T00:06:17;11.63;;;5.32;;
35648;SDS011;21768;48.562;13.414;2022-08-19T00:08:42;13.50;;;6.93;;
35648;SDS011;21768;48.562;13.414;2022-08-19T00:11:08;14.98;;;9.40;;
35648;SDS011;21768;48.562;13.414;2022-08-19T00:13:34;17.80;;;10.55;;
35648;SDS011;21768;48.562;13.414;2022-08-19T00:16:00;14.15;;;10.38;;
35648;SDS011;21768;48.562;13.414;2022-08-19T00:18:26;11.32;;;8.23;;
35648;SDS011;21768;48.562;13.414;2022-08-19T00:20:52;14.75;;;9.45;;
35648;SDS011;21768;48.562;13.414;2022-08-19T00:23:18;12.60;;;10.38;;
35648;SDS011;21768;48.562;13.414;2022-08-19T00:25:44;10.40;;;7.10;;
35648;SDS011;21768;48.562;13.414;2022-08-19T00:28:09;14.25;;;8.48;;
35648;SDS011;21768;48.562;13.414;2022-08-19T00:30:36;15.20;;;9.98;;
35648;SDS011;21768;48.562;13.414;2022-08-19T00:33:02;18.27;;;11.05;;
35648;SDS011;21768;48.562;13.414;2022-08-19T00:35:28;14.73;;;10.48;;
35648;SDS011;21768;48.562;13.414;2022-08-19T00:37:54;17.52;;;11.00;;
35648;SDS011;21768;48.562;13.414;2022-08-19T00:40:20;15.48;;;10.65;;
35648;SDS011;21768;48.562;13.414;2022-08-19T00:42:46;17.98;;;11.98;;
35648;SDS011;21768;48.562;13.414;2022-08-19T00:45:13;18.13;;;10.77;;
35648;SDS011;21768;48.562;13.414;2022-08-19T00:47:42;13.48;;;10.23;;
35648;SDS011;21768;48.562;13.414;2022-08-19T00:50:08;17.75;;;11.57;;
35648;SDS011;21768;48.562;13.414;2022-08-19T00:52:38;16.58;;;10.40;;
35648;SDS011;21768;48.562;13.414;2022-08-19T00:55:09;14.38;;;10.60;;
35648;SDS011;21768;48.562;13.414;2022-08-19T00:57:37;14.23;;;10.27;;
35648;SDS011;21768;48.562;13.414;2022-08-19T01:00:07;12.73;;;10.25;;
35648;SDS011;21768;48.562;13.414;2022-08-19T01:02:37;12.35;;;8.63;;
35648;SDS011;21768;48.562;13.414;2022-08-19T01:05:04;13.13;;;9.38;;
35648;SDS011;21768;48.562;13.414;2022-08-19T01:07:33;13.38;;;9.75;;
35648;SDS011;21768;48.562;13.414;2022-08-19T01:09:59;16.90;;;9.98;;
35648;SDS011;21768;48.562;13.414;2022-08-19T01:12:25;16.80;;;10.00;;
35648;SDS011;21768;48.562;13.414;2022-08-19T01:14:50;14.70;;;9.85;;
35648;SDS011;21768;48.562;13.414;2022-08-19T01:17:17;15.40;;;9.93;;
35648;SDS011;21768;48.562;13.414;2022-08-19T01:19:44;14.98;;;10.25;;
35648;SDS011;21768;48.562;13.414;2022-08-19T01:24:37;12.20;;;8.75;;
35648;SDS011;21768;48.562;13.414;2022-08-19T01:27:06;11.68;;;8.70;;
35648;SDS011;21768;48.562;13.414;2022-08-19T01:29:32;12.77;;;9.45;;
35648;SDS011;21768;48.562;13.414;2022-08-19T01:32:00;18.63;;;9.43;;
35648;SDS011;21768;48.562;13.414;2022-08-19T01:34:26;13.50;;;9.57;;
35648;SDS011;21768;48.562;13.414;2022-08-19T01:36:51;13.60;;;9.70;;
35648;SDS011;21768;48.562;13.414;2022-08-19T01:39:21;17.08;;;10.30;;
35648;SDS011;21768;48.562;13.414;2022-08-19T01:41:48;14.50;;;9.95;;
35648;SDS011;21768;48.562;13.414;2022-08-19T01:44:14;12.57;;;8.20;;
35648;SDS011;21768;48.562;13.414;2022-08-19T01:46:41;20.00;;;11.82;;
35648;SDS011;21768;48.562;13.414;2022-08-19T01:49:08;14.00;;;10.52;;
35648;SDS011;21768;48.562;13.414;2022-08-19T01:51:34;13.25;;;10.07;;
35648;SDS011;21768;48.562;13.414;2022-08-19T01:53:59;13.98;;;10.95;;
35648;SDS011;21768;48.562;13.414;2022-08-19T01:56:25;11.82;;;9.70;;
35648;SDS011;21768;48.562;13.414;2022-08-19T01:58:53;14.18;;;10.27;;
35648;SDS011;21768;48.562;13.414;2022-08-19T02:01:21;15.88;;;10.60;;
35648;SDS011;21768;48.562;13.414;2022-08-19T02:03:46;13.73;;;10.05;;
35648;SDS011;21768;48.562;13.414;2022-08-19T02:06:12;12.77;;;9.27;;
35648;SDS011;21768;48.562;13.414;2022-08-19T02:08:38;14.20;;;9.82;;
35648;SDS011;21768;48.562;13.414;2022-08-19T02:11:04;14.48;;;9.77;;
35648;SDS011;21768;48.562;13.414;2022-08-19T02:13:31;20.05;;;10.07;;
35648;SDS011;21768;48.562;13.414;2022-08-19T02:15:57;12.65;;;9.93;;
35648;SDS011;21768;48.562;13.414;2022-08-19T02:18:22;13.43;;;9.93;;
35648;SDS011;21768;48.562;13.414;2022-08-19T02:20:48;13.10;;;9.93;;
35648;SDS011;21768;48.562;13.414;2022-08-19T02:23:15;15.07;;;10.23;;
35648;SDS011;21768;48.562;13.414;2022-08-19T02:25:42;13.60;;;9.52;;
35648;SDS011;21768;48.562;13.414;2022-08-19T02:28:09;13.82;;;10.18;;
35648;SDS011;21768;48.562;13.414;2022-08-19T02:30:36;12.95;;;9.90;;
35648;SDS011;21768;48.562;13.414;2022-08-19T02:33:03;15.52;;;10.10;;
35648;SDS011;21768;48.562;13.414;2022-08-19T02:35:29;14.77;;;10.82;;
35648;SDS011;21768;48.562;13.414;2022-08-19T02:37:56;15.23;;;11.80;;
35648;SDS011;21768;48.562;13.414;2022-08-19T02:40:40;18.00;;;12.25;;
35648;SDS011;21768;48.562;13.414;2022-08-19T02:43:06;19.48;;;12.90;;
35648;SDS011;21768;48.562;13.414;2022-08-19T02:45:37;18.98;;;13.60;;
35648;SDS011;21768;48.562;13.414;2022-08-19T02:48:04;20.92;;;13.98;;
35648;SDS011;21768;48.562;13.414;2022-08-19T02:50:30;17.40;;;12.77;;
35648;SDS011;21768;48.562;13.414;2022-08-19T02:52:56;18.63;;;13.35;;
35648;SDS011;21768;48.562;13.414;2022-08-19T02:55:22;17.95;;;13.23;;
35648;SDS011;21768;48.562;13.414;2022-08-19T02:57:48;18.63;;;12.13;;
35648;SDS011;21768;48.562;13.414;2022-08-19T03:00:13;18.65;;;12.77;;
35648;SDS011;21768;48.562;13.414;2022-08-19T03:02:40;15.85;;;12.13;;
35648;SDS011;21768;48.562;13.414;2022-08-19T03:05:06;18.65;;;12.75;;
35648;SDS011;21768;48.562;13.414;2022-08-19T03:07:34;21.85;;;14.90;;
35648;SDS011;21768;48.562;13.414;2022-08-19T03:10:01;21.02;;;15.50;;
35648;SDS011;21768;48.562;13.414;2022-08-19T03:12:28;20.40;;;13.88;;
35648;SDS011;21768;48.562;13.414;2022-08-19T03:14:53;18.40;;;13.45;;
35648;SDS011;21768;48.562;13.414;2022-08-19T03:17:19;19.48;;;13.98;;
35648;SDS011;21768;48.562;13.414;2022-08-19T03:19:45;18.08;;;13.82;;
35648;SDS011;21768;48.562;13.414;2022-08-19T03:22:10;22.20;;;13.23;;
35648;SDS011;21768;48.562;13.414;2022-08-19T03:24:35;21.20;;;14.13;;
35648;SDS011;21768;48.562;13.414;2022-08-19T03:27:02;18.98;;;13.80;;
35648;SDS011;21768;48.562;13.414;2022-08-19T03:29:30;21.55;;;14.20;;
35648;SDS011;21768;48.562;13.414;2022-08-19T03:31:57;20.65;;;13.95;;
35648;SDS011;21768;48.562;13.414;2022-08-19T03:34:26;21.52;;;15.02;;
35648;SDS011;21768;48.562;13.414;2022-08-19T03:36:56;21.30;;;14.35;;
35648;SDS011;21768;48.562;13.414;2022-08-19T03:39:23;23.30;;;14.40;;
35648;SDS011;21768;48.562;13.414;2022-08-19T03:41:51;22.23;;;14.43;;
35648;SDS011;21768;48.562;13.414;2022-08-19T03:44:18;22.92;;;14.95;;
35648;SDS011;21768;48.562;13.414;2022-08-19T03:46:48;19.20;;;14.25;;
35648;SDS011;21768;48.562;13.414;2022-08-19T03:49:15;20.77;;;14.73;;
35648;SDS011;21768;48.562;13.414;2022-08-19T03:51:42;21.63;;;15.52;;
35648;SDS011;21768;48.562;13.414;2022-08-19T03:54:09;25.67;;;15.00;;
35648;SDS011;21768;48.562;13.414;2022-08-19T03:56:37;24.20;;;15.25;;
35648;SDS011;21768;48.562;13.414;2022-08-19T03:59:04;24.00;;;16.50;;
35648;SDS011;21768;48.562;13.414;2022-08-19T04:01:31;20.92;;;15.45;;
35648;SDS011;21768;48.562;13.414;2022-08-19T04:03:57;24.20;;;17.00;;
35648;SDS011;21768;48.562;13.414;2022-08-19T04:06:28;25.45;;;16.50;;
35648;SDS011;21768;48.562;13.414;2022-08-19T04:08:56;29.92;;;17.45;;
35648;SDS011;21768;48.562;13.414;2022-08-19T04:11:25;24.13;;;16.80;;
35648;SDS011;21768;48.562;13.414;2022-08-19T04:13:52;22.85;;;16.80;;
35648;SDS011;21768;48.562;13.414;2022-08-19T04:16:19;23.00;;;17.30;;
35648;SDS011;21768;48.562;13.414;2022-08-19T04:18:49;25.40;;;17.85;;
35648;SDS011;21768;48.562;13.414;2022-08-19T04:21:19;21.08;;;14.25;;
35648;SDS011;21768;48.562;13.414;2022-08-19T04:23:47;25.42;;;16.85;;
35648;SDS011;21768;48.562;13.414;2022-08-19T04:26:18;25.73;;;16.60;;
35648;SDS011;21768;48.562;13.414;2022-08-19T04:28:56;24.77;;;17.67;;
35648;SDS011;21768;48.562;13.414;2022-08-19T04:31:23;23.88;;;16.63;;
35648;SDS011;21768;48.562;13.414;2022-08-19T04:33:51;24.15;;;16.48;;
35648;SDS011;21768;48.562;13.414;2022-08-19T04:36:26;25.08;;;17.38;;
35648;SDS011;21768;48.562;13.414;2022-08-19T04:38:55;21.80;;;16.20;;
35648;SDS011;21768;48.562;13.414;2022-08-19T04:41:23;26.70;;;17.08;;
35648;SDS011;21768;48.562;13.414;2022-08-19T04:44:07;26.33;;;16.90;;
35648;SDS011;21768;48.562;13.414;2022-08-19T04:46:34;24.17;;;16.40;;
35648;SDS011;21768;48.562;13.414;2022-08-19T04:48:59;24.80;;;16.83;;
35648;SDS011;21768;48.562;13.414;2022-08-19T04:51:26;22.83;;;16.25;;
35648;SDS011;21768;48.562;13.414;2022-08-19T04:53:52;29.67;;;16.52;;
35648;SDS011;21768;48.562;13.414;2022-08-19T04:56:18;26.23;;;17.98;;
35648;SDS011;21768;48.562;13.414;2022-08-19T04:58:48;25.25;;;17.83;;
35648;SDS011;21768;48.562;13.414;2022-08-19T05:01:34;23.60;;;16.77;;
35648;SDS011;21768;48.562;13.414;2022-08-19T05:04:01;24.13;;;15.90;;
35648;SDS011;21768;48.562;13.414;2022-08-19T05:06:30;22.52;;;15.57;;
35648;SDS011;21768;48.562;13.414;2022-08-19T05:08:57;25.98;;;15.80;;
35648;SDS011;21768;48.562;13.414;2022-08-19T05:11:25;24.42;;;14.55;;
35648;SDS011;21768;48.562;13.414;2022-08-19T05:13:53;18.30;;;13.85;;
35648;SDS011;21768;48.562;13.414;2022-08-19T05:16:20;23.48;;;15.10;;
35648;SDS011;21768;48.562;13.414;2022-08-19T05:18:47;17.73;;;13.43;;
35648;SDS011;21768;48.562;13.414;2022-08-19T05:21:32;18.20;;;12.77;;
35648;SDS011;21768;48.562;13.414;2022-08-19T05:24:17;20.38;;;12.45;;
35648;SDS011;21768;48.562;13.414;2022-08-19T05:26:44;15.43;;;12.02;;
35648;SDS011;21768;48.562;13.414;2022-08-19T05:29:12;19.33;;;12.10;;
35648;SDS011;21768;48.562;13.414;2022-08-19T05:31:39;20.50;;;11.07;;
35648;SDS011;21768;48.562;13.414;2022-08-19T05:34:05;17.75;;;11.65;;
35648;SDS011;21768;48.562;13.414;2022-08-19T05:36:40;17.67;;;10.88;;
35648;SDS011;21768;48.562;13.414;2022-08-19T05:39:09;15.32;;;11.32;;
35648;SDS011;21768;48.562;13.414;2022-08-19T05:41:41;14.98;;;10.68;;
35648;SDS011;21768;48.562;13.414;2022-08-19T05:44:07;15.70;;;10.25;;
35648;SDS011;21768;48.562;13.414;2022-08-19T05:46:35;17.83;;;10.77;;
35648;SDS011;21768;48.562;13.414;2022-08-19T05:49:03;14.20;;;10.43;;
35648;SDS011;21768;48.562;13.414;2022-08-19T05:51:30;12.85;;;10.48;;
35648;SDS011;21768;48.562;13.414;2022-08-19T05:53:56;13.95;;;9.73;;
35648;SDS011;21768;48.562;13.414;2022-08-19T05:56:23;14.10;;;10.05;;
35648;SDS011;21768;48.562;13.414;2022-08-19T05:58:48;13.90;;;10.52;;
35648;SDS011;21768;48.562;13.414;2022-08-19T06:01:15;15.20;;;10.88;;
35648;SDS011;21768;48.562;13.414;2022-08-19T06:03:42;15.90;;;10.88;;
35648;SDS011;21768;48.562;13.414;2022-08-19T06:06:09;14.27;;;10.50;;
35648;SDS011;21768;48.562;13.414;2022-08-19T06:08:37;15.98;;;10.45;;
35648;SDS011;21768;48.562;13.414;2022-08-19T06:13:47;15.50;;;11.85;;
35648;SDS011;21768;48.562;13.414;2022-08-19T06:16:16;16.88;;;12.25;;
35648;SDS011;21768;48.562;13.414;2022-08-19T06:18:46;19.23;;;11.52;;
35648;SDS011;21768;48.562;13.414;2022-08-19T06:21:11;19.15;;;11.63;;
35648;SDS011;21768;48.562;13.414;2022-08-19T06:23:37;16.42;;;11.98;;
35648;SDS011;21768;48.562;13.414;2022-08-19T06:26:03;19.30;;;13.50;;
35648;SDS011;21768;48.562;13.414;2022-08-19T06:28:29;14.70;;;11.35;;
35648;SDS011;21768;48.562;13.414;2022-08-19T06:30:54;19.10;;;12.60;;
35648;SDS011;21768;48.562;13.414;2022-08-19T06:33:19;18.23;;;12.10;;
35648;SDS011;21768;48.562;13.414;2022-08-19T06:35:45;15.15;;;10.98;;
35648;SDS011;21768;48.562;13.414;2022-08-19T06:38:10;15.90;;;11.18;;
35648;SDS011;21768;48.562;13.414;2022-08-19T06:40:36;15.50;;;11.02;;
35648;SDS011;21768;48.562;13.414;2022-08-19T06:43:02;17.73;;;10.50;;
35648;SDS011;21768;48.562;13.414;2022-08-19T06:45:28;14.48;;;11.02;;
35648;SDS011;21768;48.562;13.414;2022-08-19T06:47:53;21.17;;;12.73;;
35648;SDS011;21768;48.562;13.414;2022-08-19T06:50:20;19.33;;;11.93;;
35648;SDS011;21768;48.562;13.414;2022-08-19T06:52:49;18.05;;;12.05;;
35648;SDS011;21768;48.562;13.414;2022-08-19T06:55:14;15.90;;;11.95;;
35648;SDS011;21768;48.562;13.414;2022-08-19T06:57:40;14.65;;;11.07;;
35648;SDS011;21768;48.562;13.414;2022-08-19T07:00:07;15.30;;;11.93;;
35648;SDS011;21768;48.562;13.414;2022-08-19T07:02:40;16.77;;;11.48;;
35648;SDS011;21768;48.562;13.414;2022-08-19T07:05:09;18.90;;;11.50;;
35648;SDS011;21768;48.562;13.414;2022-08-19T07:07:35;18.05;;;13.02;;
35648;SDS011;21768;48.562;13.414;2022-08-19T07:10:00;17.58;;;12.85;;
35648;SDS011;21768;48.562;13.414;2022-08-19T07:12:30;20.42;;;14.80;;
35648;SDS011;21768;48.562;13.414;2022-08-19T07:15:00;19.58;;;14.55;;
35648;SDS011;21768;48.562;13.414;2022-08-19T07:17:26;18.52;;;14.02;;
35648;SDS011;21768;48.562;13.414;2022-08-19T07:19:52;19.48;;;13.63;;
35648;SDS011;21768;48.562;13.414;2022-08-19T07:22:18;22.83;;;14.90;;
35648;SDS011;21768;48.562;13.414;2022-08-19T07:24:45;25.13;;;16.27;;
35648;SDS011;21768;48.562;13.414;2022-08-19T07:27:13;21.17;;;15.70;;
35648;SDS011;21768;48.562;13.414;2022-08-19T07:29:39;29.92;;;17.65;;
35648;SDS011;21768;48.562;13.414;2022-08-19T07:32:05;21.13;;;15.75;;
35648;SDS011;21768;48.562;13.414;2022-08-19T07:34:31;22.02;;;14.02;;
35648;SDS011;21768;48.562;13.414;2022-08-19T07:37:01;20.40;;;14.75;;
35648;SDS011;21768;48.562;13.414;2022-08-19T07:39:29;22.23;;;16.42;;
35648;SDS011;21768;48.562;13.414;2022-08-19T07:41:58;20.83;;;14.88;;
35648;SDS011;21768;48.562;13.414;2022-08-19T07:44:25;21.30;;;16.63;;
35648;SDS011;21768;48.562;13.414;2022-08-19T07:46:52;23.27;;;16.55;;
35648;SDS011;21768;48.562;13.414;2022-08-19T07:49:20;24.48;;;16.55;;
35648;SDS011;21768;48.562;13.414;2022-08-19T07:51:48;25.02;;;16.55;;
35648;SDS011;21768;48.562;13.414;2022-08-19T07:54:15;23.30;;;17.33;;
35648;SDS011;21768;48.562;13.414;2022-08-19T07:56:41;28.98;;;20.23;;
35648;SDS011;21768;48.562;13.414;2022-08-19T07:59:07;27.15;;;18.80;;
35648;SDS011;21768;48.562;13.414;2022-08-19T08:01:34;25.13;;;17.75;;
35648;SDS011;21768;48.562;13.414;2022-08-19T08:04:00;25.25;;;18.25;;
35648;SDS011;21768;48.562;13.414;2022-08-19T08:06:43;26.40;;;18.20;;
35648;SDS011;21768;48.562;13.414;2022-08-19T08:09:29;23.98;;;17.00;;
35648;SDS011;21768;48.562;13.414;2022-08-19T08:12:02;23.05;;;16.70;;
35648;SDS011;21768;48.562;13.414;2022-08-19T08:14:36;24.80;;;17.90;;
35648;SDS011;21768;48.562;13.414;2022-08-19T08:17:07;23.92;;;16.85;;
35648;SDS011;21768;48.562;13.414;2022-08-19T08:19:34;24.73;;;16.92;;
35648;SDS011;21768;48.562;13.414;2022-08-19T08:22:01;22.70;;;15.85;;
35648;SDS011;21768;48.562;13.414;2022-08-19T08:24:28;21.75;;;15.38;;
35648;SDS011;21768;48.562;13.414;2022-08-19T08:26:59;18.40;;;13.93;;
35648;SDS011;21768;48.562;13.414;2022-08-19T08:29:26;22.27;;;15.85;;
35648;SDS011;21768;48.562;13.414;2022-08-19T08:31:53;21.42;;;15.35;;
35648;SDS011;21768;48.562;13.414;2022-08-19T08:34:19;22.83;;;14.88;;
35648;SDS011;21768;48.562;13.414;2022-08-19T08:36:45;23.30;;;15.65;;
35648;SDS011;21768;48.562;13.414;2022-08-19T08:39:13;22.80;;;15.45;;
35648;SDS011;21768;48.562;13.414;2022-08-19T08:44:16;20.92;;;15.57;;
35648;SDS011;21768;48.562;13.414;2022-08-19T08:46:47;21.65;;;15.10;;
35648;SDS011;21768;48.562;13.414;2022-08-19T08:52:03;19.88;;;13.63;;
35648;SDS011;21768;48.562;13.414;2022-08-19T08:54:39;23.83;;;16.17;;
35648;SDS011;21768;48.562;13.414;2022-08-19T08:57:10;22.33;;;15.10;;
35648;SDS011;21768;48.562;13.414;2022-08-19T08:59:41;22.02;;;14.88;;
35648;SDS011;21768;48.562;13.414;2022-08-19T09:02:08;22.23;;;15.27;;
35648;SDS011;21768;48.562;13.414;2022-08-19T09:04:37;23.20;;;16.08;;
35648;SDS011;21768;48.562;13.414;2022-08-19T09:09:42;23.33;;;16.27;;
35648;SDS011;21768;48.562;13.414;2022-08-19T09:12:13;23.58;;;15.68;;
35648;SDS011;21768;48.562;13.414;2022-08-19T09:17:23;22.67;;;15.82;;
35648;SDS011;21768;48.562;13.414;2022-08-19T09:20:18;23.88;;;16.25;;
35648;SDS011;21768;48.562;13.414;2022-08-19T09:22:43;21.27;;;16.38;;
35648;SDS011;21768;48.562;13.414;2022-08-19T09:25:10;20.17;;;15.38;;
35648;SDS011;21768;48.562;13.414;2022-08-19T09:27:37;19.05;;;14.73;;
35648;SDS011;21768;48.562;13.414;2022-08-19T09:30:05;20.42;;;15.07;;
35648;SDS011;21768;48.562;13.414;2022-08-19T09:32:32;23.52;;;16.05;;
35648;SDS011;21768;48.562;13.414;2022-08-19T09:34:58;21.25;;;15.38;;
35648;SDS011;21768;48.562;13.414;2022-08-19T09:37:25;21.35;;;16.05;;
35648;SDS011;21768;48.562;13.414;2022-08-19T09:39:51;19.70;;;14.73;;
35648;SDS011;21768;48.562;13.414;2022-08-19T09:42:17;21.25;;;14.27;;
35648;SDS011;21768;48.562;13.414;2022-08-19T09:44:43;21.10;;;14.82;;
35648;SDS011;21768;48.562;13.414;2022-08-19T09:47:10;22.90;;;15.25;;
35648;SDS011;21768;48.562;13.414;2022-08-19T09:49:38;19.15;;;14.95;;
35648;SDS011;21768;48.562;13.414;2022-08-19T09:52:04;21.10;;;14.93;;
35648;SDS011;21768;48.562;13.414;2022-08-19T09:54:32;22.17;;;15.50;;
35648;SDS011;21768;48.562;13.414;2022-08-19T09:56:59;20.15;;;15.57;;
35648;SDS011;21768;48.562;13.414;2022-08-19T09:59:25;22.70;;;15.70;;
35648;SDS011;21768;48.562;13.414;2022-08-19T10:01:51;20.02;;;14.48;;
35648;SDS011;21768;48.562;13.414;2022-08-19T10:04:16;20.02;;;15.27;;
35648;SDS011;21768;48.562;13.414;2022-08-19T10:06:42;23.08;;;14.02;;
35648;SDS011;21768;48.562;13.414;2022-08-19T10:09:08;20.45;;;14.10;;
35648;SDS011;21768;48.562;13.414;2022-08-19T10:11:36;19.27;;;14.02;;
35648;SDS011;21768;48.562;13.414;2022-08-19T10:14:04;20.73;;;14.50;;
35648;SDS011;21768;48.562;13.414;2022-08-19T10:16:32;19.05;;;13.43;;
35648;SDS011;21768;48.562;13.414;2022-08-19T10:18:58;21.40;;;13.10;;
35648;SDS011;21768;48.562;13.414;2022-08-19T10:21:25;17.38;;;13.13;;
35648;SDS011;21768;48.562;13.414;2022-08-19T10:23:54;15.43;;;11.80;;
35648;SDS011;21768;48.562;13.414;2022-08-19T10:26:27;18.00;;;13.18;;
35648;SDS011;21768;48.562;13.414;2022-08-19T10:28:54;18.92;;;12.25;;
35648;SDS011;21768;48.562;13.414;2022-08-19T10:31:25;17.30;;;13.65;;
35648;SDS011;21768;48.562;13.414;2022-08-19T10:33:53;15.48;;;12.15;;
35648;SDS011;21768;48.562;13.414;2022-08-19T10:36:23;17.45;;;11.48;;
35648;SDS011;21768;48.562;13.414;2022-08-19T10:38:51;15.30;;;11.30;;
35648;SDS011;21768;48.562;13.414;2022-08-19T10:41:21;18.30;;;13.13;;
35648;SDS011;21768;48.562;13.414;2022-08-19T10:43:52;14.90;;;10.98;;
35648;SDS011;21768;48.562;13.414;2022-08-19T10:46:20;15.57;;;11.85;;
35648;SDS011;21768;48.562;13.414;2022-08-19T10:48:47;17.75;;;11.52;;
35648;SDS011;21768;48.562;13.414;2022-08-19T10:51:13;15.38;;;9.60;;
35648;SDS011;21768;48.562;13.414;2022-08-19T10:53:57;17.55;;;12.50;;
35648;SDS011;21768;48.562;13.414;2022-08-19T10:56:23;14.45;;;10.77;;
35648;SDS011;21768;48.562;13.414;2022-08-19T10:59:08;14.95;;;10.82;;
35648;SDS011;21768;48.562;13.414;2022-08-19T11:01:34;14.00;;;10.43;;
35648;SDS011;21768;48.562;13.414;2022-08-19T11:04:01;11.32;;;9.52;;
35648;SDS011;21768;48.562;13.414;2022-08-19T11:06:28;12.52;;;9.10;;
35648;SDS011;21768;48.562;13.414;2022-08-19T11:08:54;11.43;;;9.07;;
35648;SDS011;21768;48.562;13.414;2022-08-19T11:11:20;12.00;;;9.30;;
35648;SDS011;21768;48.562;13.414;2022-08-19T11:13:46;13.40;;;9.70;;
35648;SDS011;21768;48.562;13.414;2022-08-19T11:16:17;9.95;;;8.15;;
35648;SDS011;21768;48.562;13.414;2022-08-19T11:18:48;9.38;;;7.72;;
35648;SDS011;21768;48.562;13.414;2022-08-19T11:21:18;12.70;;;9.02;;
35648;SDS011;21768;48.562;13.414;2022-08-19T11:23:47;10.35;;;8.02;;
35648;SDS011;21768;48.562;13.414;2022-08-19T11:26:14;8.70;;;6.97;;
35648;SDS011;21768;48.562;13.414;2022-08-19T11:28:40;8.25;;;6.57;;
35648;SDS011;21768;48.562;13.414;2022-08-19T11:31:13;8.23;;;7.15;;
35648;SDS011;21768;48.562;13.414;2022-08-19T11:36:08;10.10;;;6.55;;
35648;SDS011;21768;48.562;13.414;2022-08-19T11:38:34;11.45;;;7.65;;
35648;SDS011;21768;48.562;13.414;2022-08-19T11:41:02;12.13;;;7.90;;
35648;SDS011;21768;48.562;13.414;2022-08-19T11:43:30;10.13;;;7.70;;
35648;SDS011;21768;48.562;13.414;2022-08-19T11:45:57;14.48;;;8.75;;
35648;SDS011;21768;48.562;13.414;2022-08-19T11:48:23;11.40;;;8.35;;
35648;SDS011;21768;48.562;13.414;2022-08-19T11:50:50;10.40;;;7.75;;
35648;SDS011;21768;48.562;13.414;2022-08-19T11:53:17;9.60;;;7.25;;
35648;SDS011;21768;48.562;13.414;2022-08-19T11:55:45;9.35;;;6.82;;
35648;SDS011;21768;48.562;13.414;2022-08-19T11:58:12;9.80;;;7.30;;
35648;SDS011;21768;48.562;13.414;2022-08-19T12:00:39;10.18;;;7.57;;
35648;SDS011;21768;48.562;13.414;2022-08-19T12:03:05;8.07;;;6.97;;
35648;SDS011;21768;48.562;13.414;2022-08-19T12:05:31;10.63;;;7.18;;
35648;SDS011;21768;48.562;13.414;2022-08-19T12:07:56;9.65;;;7.20;;
35648;SDS011;21768;48.562;13.414;2022-08-19T12:10:22;8.65;;;7.57;;
35648;SDS011;21768;48.562;13.414;2022-08-19T12:12:48;11.13;;;6.43;;
35648;SDS011;21768;48.562;13.414;2022-08-19T12:15:14;9.10;;;6.47;;
35648;SDS011;21768;48.562;13.414;2022-08-19T12:17:42;7.97;;;6.45;;
35648;SDS011;21768;48.562;13.414;2022-08-19T12:20:11;7.85;;;6.40;;
35648;SDS011;21768;48.562;13.414;2022-08-19T12:22:38;9.00;;;6.13;;
35648;SDS011;21768;48.562;13.414;2022-08-19T12:25:06;9.95;;;6.40;;
35648;SDS011;21768;48.562;13.414;2022-08-19T12:27:32;8.15;;;5.65;;
35648;SDS011;21768;48.562;13.414;2022-08-19T12:30:00;7.03;;;5.93;;
35648;SDS011;21768;48.562;13.414;2022-08-19T12:32:27;7.63;;;6.40;;
35648;SDS011;21768;48.562;13.414;2022-08-19T12:34:53;13.55;;;6.10;;
35648;SDS011;21768;48.562;13.414;2022-08-19T12:37:19;7.22;;;6.05;;
35648;SDS011;21768;48.562;13.414;2022-08-19T12:39:45;11.00;;;6.13;;
35648;SDS011;21768;48.562;13.414;2022-08-19T12:42:11;8.75;;;5.63;;
35648;SDS011;21768;48.562;13.414;2022-08-19T12:44:38;6.78;;;5.72;;
35648;SDS011;21768;48.562;13.414;2022-08-19T12:47:05;6.32;;;5.03;;
35648;SDS011;21768;48.562;13.414;2022-08-19T12:49:31;9.05;;;5.00;;
35648;SDS011;21768;48.562;13.414;2022-08-19T12:51:59;6.10;;;4.85;;
35648;SDS011;21768;48.562;13.414;2022-08-19T12:54:26;7.10;;;4.82;;
35648;SDS011;21768;48.562;13.414;2022-08-19T12:56:52;7.95;;;5.10;;
35648;SDS011;21768;48.562;13.414;2022-08-19T12:59:17;8.75;;;5.25;;
35648;SDS011;21768;48.562;13.414;2022-08-19T13:01:45;8.70;;;5.28;;
35648;SDS011;21768;48.562;13.414;2022-08-19T13:04:10;6.43;;;4.97;;
35648;SDS011;21768;48.562;13.414;2022-08-19T13:06:36;8.60;;;5.40;;
35648;SDS011;21768;48.562;13.414;2022-08-19T13:09:02;6.97;;;5.32;;
35648;SDS011;21768;48.562;13.414;2022-08-19T13:11:28;9.00;;;5.45;;
35648;SDS011;21768;48.562;13.414;2022-08-19T13:13:57;7.00;;;5.47;;
35648;SDS011;21768;48.562;13.414;2022-08-19T13:16:23;7.28;;;5.90;;
35648;SDS011;21768;48.562;13.414;2022-08-19T13:18:50;8.40;;;6.22;;
35648;SDS011;21768;48.562;13.414;2022-08-19T13:21:19;8.95;;;5.53;;
35648;SDS011;21768;48.562;13.414;2022-08-19T13:23:48;6.55;;;5.78;;
35648;SDS011;21768;48.562;13.414;2022-08-19T13:26:15;7.95;;;6.13;;
35648;SDS011;21768;48.562;13.414;2022-08-19T13:28:41;14.02;;;6.65;;
35648;SDS011;21768;48.562;13.414;2022-08-19T13:31:27;10.47;;;7.10;;
35648;SDS011;21768;48.562;13.414;2022-08-19T13:36:38;8.82;;;6.25;;
35648;SDS011;21768;48.562;13.414;2022-08-19T13:39:04;11.45;;;5.85;;
35648;SDS011;21768;48.562;13.414;2022-08-19T13:41:31;8.30;;;5.90;;
35648;SDS011;21768;48.562;13.414;2022-08-19T13:43:56;13.50;;;6.00;;
35648;SDS011;21768;48.562;13.414;2022-08-19T13:46:22;11.90;;;5.95;;
35648;SDS011;21768;48.562;13.414;2022-08-19T13:48:48;7.38;;;5.50;;
35648;SDS011;21768;48.562;13.414;2022-08-19T13:51:15;7.43;;;4.60;;
35648;SDS011;21768;48.562;13.414;2022-08-19T13:53:42;6.75;;;4.80;;
35648;SDS011;21768;48.562;13.414;2022-08-19T13:56:10;8.32;;;4.32;;
35648;SDS011;21768;48.562;13.414;2022-08-19T13:58:38;4.85;;;4.07;;
35648;SDS011;21768;48.562;13.414;2022-08-19T14:01:04;4.35;;;3.55;;
35648;SDS011;21768;48.562;13.414;2022-08-19T14:03:31;5.40;;;3.40;;
35648;SDS011;21768;48.562;13.414;2022-08-19T14:05:57;4.38;;;3.90;;
35648;SDS011;21768;48.562;13.414;2022-08-19T14:08:23;5.82;;;3.60;;
35648;SDS011;21768;48.562;13.414;2022-08-19T14:10:49;7.15;;;4.13;;
35648;SDS011;21768;48.562;13.414;2022-08-19T14:13:15;3.80;;;3.28;;
35648;SDS011;21768;48.562;13.414;2022-08-19T14:15:43;5.10;;;3.60;;
35648;SDS011;21768;48.562;13.414;2022-08-19T14:18:09;7.25;;;3.88;;
35648;SDS011;21768;48.562;13.414;2022-08-19T14:20:35;7.28;;;3.28;;
35648;SDS011;21768;48.562;13.414;2022-08-19T14:23:01;5.55;;;3.97;;
35648;SDS011;21768;48.562;13.414;2022-08-19T14:25:28;5.78;;;3.47;;
35648;SDS011;21768;48.562;13.414;2022-08-19T14:27:56;9.82;;;6.78;;
35648;SDS011;21768;48.562;13.414;2022-08-19T14:30:24;4.85;;;3.40;;
35648;SDS011;21768;48.562;13.414;2022-08-19T14:32:52;5.82;;;3.42;;
35648;SDS011;21768;48.562;13.414;2022-08-19T14:35:19;5.13;;;3.70;;
35648;SDS011;21768;48.562;13.414;2022-08-19T14:37:47;5.90;;;3.22;;
35648;SDS011;21768;48.562;13.414;2022-08-19T14:40:15;4.45;;;2.95;;